Whitestone, Texas
Current Conditions -  °F | °C
As of 4:15 PM on Thursday 18 Dec 2014 (Local Time) from KRYW Reporting Station
Overcast Overcast  
Wind Chill: 59°   Ceiling: 700
Heat Index: 59°   Visibility: 10mi
Dew Point: 55°   Wind: 5mph
Humidity: 87%   Direction: 80°E
Pressure: 30.05"   Gusts: NA
Location:  30.558°N, 97.9247°W
Report Text: KRYW 182215Z AUTO 08004KT 10SM OVC007 15/13 A3005 RMK AO2 T01510130
Loading
Personal Weather Stations






























Interactive Weather Map New forecast layout! Learn more

10-Day Weather Forecast

Advertisements
Track Severe Weather on mobile